createdAt,value
2022-09-12T00:10:22.850Z,15.6
2022-09-12T00:25:32.154Z,15.5
2022-09-12T00:40:41.731Z,15.4
2022-09-12T00:55:51.002Z,15.4
2022-09-12T01:11:00.361Z,15.3
2022-09-12T01:26:10.494Z,15.1
2022-09-12T01:41:19.390Z,15.1
2022-09-12T01:56:28.784Z,15
2022-09-12T02:11:42.315Z,14.9
2022-09-12T02:26:51.544Z,14.8
2022-09-12T02:42:00.382Z,14.7
2022-09-12T02:57:09.712Z,14.6
2022-09-12T03:12:19.042Z,14.5
2022-09-12T03:27:28.222Z,14.4
2022-09-12T03:42:37.654Z,14.4
2022-09-12T03:57:47.477Z,14.3
2022-09-12T04:12:57.168Z,14.3
2022-09-12T04:28:06.548Z,14.2
2022-09-12T04:43:15.709Z,14.1
2022-09-12T04:58:24.872Z,14.1
2022-09-12T05:13:34.686Z,14
2022-09-12T05:28:44.534Z,14
2022-09-12T05:43:53.911Z,14
2022-09-12T05:59:03.501Z,14.1
2022-09-12T06:14:12.989Z,14.3
2022-09-12T06:29:22.844Z,14.4
2022-09-12T06:44:31.998Z,14.7
2022-09-12T06:59:41.951Z,14.9
2022-09-12T07:14:51.685Z,15.1
2022-09-12T07:30:02.189Z,15.4
2022-09-12T07:45:11.894Z,15.6
2022-09-12T08:00:21.895Z,15.9
2022-09-12T08:15:31.704Z,16.2
2022-09-12T08:30:42.008Z,16.6
2022-09-12T08:45:52.351Z,16.9
2022-09-12T09:01:02.434Z,17.4
2022-09-12T09:16:12.585Z,17.7
2022-09-12T09:31:22.632Z,18.3
2022-09-12T09:46:33.804Z,18.6
2022-09-12T10:01:44.250Z,19
2022-09-12T10:16:54.859Z,19.2
2022-09-12T10:32:04.661Z,19.6
2022-09-12T10:47:14.855Z,19.9
2022-09-12T11:02:24.705Z,20.2
2022-09-12T11:17:35.079Z,20.4
2022-09-12T11:32:44.366Z,20.7
2022-09-12T11:47:53.986Z,20.9
2022-09-12T12:03:04.260Z,21.4
2022-09-12T12:18:14.170Z,22
2022-09-12T12:33:24.350Z,22.4
2022-09-12T12:48:34.215Z,23
2022-09-12T13:03:44.215Z,23.7
2022-09-12T13:18:54.176Z,23.9
2022-09-12T13:34:05.244Z,24.6
2022-09-12T13:49:14.539Z,24.5
2022-09-12T14:04:23.875Z,24.7
2022-09-12T14:19:33.782Z,25.2
2022-09-12T14:34:43.027Z,25.3
2022-09-12T14:49:52.830Z,25.3
2022-09-12T15:05:01.463Z,25.4
2022-09-12T15:20:11.130Z,24.9
2022-09-12T15:35:19.879Z,24.2
2022-09-12T15:50:28.708Z,23.6
2022-09-12T16:05:37.908Z,23.3
2022-09-12T16:20:47.396Z,22.9
2022-09-12T16:35:57.089Z,22.6
2022-09-12T16:51:06.633Z,22.2
2022-09-12T17:06:16.139Z,21.8
2022-09-12T17:21:25.594Z,21.5
2022-09-12T17:36:35.001Z,21.1
2022-09-12T17:51:44.763Z,20.8
2022-09-12T18:06:54.303Z,20.5
2022-09-12T18:22:04.122Z,20.3
2022-09-12T18:37:13.999Z,20.1
2022-09-12T18:52:23.559Z,19.9
2022-09-12T19:07:32.658Z,19.8
2022-09-12T19:22:42.962Z,19.6
2022-09-12T19:37:52.482Z,19.4
2022-09-12T19:53:01.754Z,19.3
2022-09-12T20:08:11.369Z,19.2
2022-09-12T20:23:28.705Z,19.1
2022-09-12T20:38:40.452Z,18.9
2022-09-12T20:53:49.649Z,18.7
2022-09-12T21:08:59.598Z,18.6
2022-09-12T21:24:09.806Z,18.5
2022-09-12T21:39:19.312Z,18.4
2022-09-12T21:54:28.602Z,18.3
2022-09-12T22:09:37.744Z,18.1
2022-09-12T22:24:47.649Z,18.1
2022-09-12T22:39:56.854Z,18
2022-09-12T22:55:06.823Z,18
2022-09-12T23:10:16.387Z,18
2022-09-12T23:25:26.008Z,17.9
2022-09-12T23:40:35.585Z,17.8
2022-09-12T23:55:45.149Z,17.8
